NCAR-RAP Real-Time Weather Data

Output produced by METARs form (23 February 2020  01:58 UTC)
found at http://weather.rap.ucar.edu/surface/
 
KSFO 230056Z 26014KT 10SM FEW006 BKN015 11/07 A3005 RMK AO2 SLP176 T01110072 $
KSFO 222356Z 25012KT 10SM FEW006 BKN016 12/07 A3004 RMK AO2 SLP172 T01220072 10161 20117 57001 $
KSFO 222353Z 24012KT 10SM FEW006 BKN016 12/07 A3004 RMK AO2 $
KSFO 222256Z 27018G23KT 10SM FEW010 BKN016 13/07 A3004 RMK AO2 SLP173 T01280072 $
KSFO 222156Z 27020G24KT 10SM FEW010 BKN019 13/08 A3004 RMK AO2 SLP173 T01330078
KSFO 222056Z 25014G21KT 10SM FEW009 SCT017 15/08 A3004 RMK AO2 SLP173 T01500078 50003
KSFO 221956Z 26014G21KT 10SM FEW009 SCT011 15/08 A3005 RMK AO2 SLP177 T01500083
KSFO 221856Z 26017KT 10SM FEW009 FEW150 16/09 A3005 RMK AO2 SLP174 T01610089
KSFO 221756Z 30008KT 10SM FEW009 FEW150 14/09 A3003 RMK AO2 SLP169 T01440089 10150 20111 51021
KSFO 221656Z 30010KT 10SM FEW008 FEW150 13/09 A3002 RMK AO2 SLP167 T01330089
KSFO 221556Z 28012KT 10SM FEW007 SCT120 SCT150 12/09 A3000 RMK AO2 SLP159 T01170089
KSFO 221456Z 29012KT 10SM FEW100 BKN120 BKN150 12/09 A2997 RMK AO2 SLP148 T01220089 53012
KSFO 221356Z 29011KT 10SM FEW120 FEW150 13/08 A2995 RMK AO2 SLP140 T01280083
KSFO 221256Z 30005KT 10SM SCT120 SCT150 13/08 A2995 RMK AO2 SLP140 T01330078
KSFO 221156Z 31008KT 10SM SCT150 13/07 A2994 RMK AO2 SLP137 T01280072 10167 20128 58006
KSFO 221056Z 28004KT 10SM SCT120 13/06 A2994 RMK AO2 SLP138 T01330061
KSFO 220956Z COR 11010KT 10SM BKN120 14/07 A2996 RMK AO2 SLP145 T01440072
KSFO 220856Z 33004KT 10SM FEW110 SCT150 BKN200 14/06 A2995 RMK AO2 SLP143 T01440061 58006
KSFO 220756Z 30008KT 10SM FEW080 BKN110 13/07 A2995 RMK AO2 SLP143 T01330072 402110094
KSFO 220656Z 29006KT 10SM FEW100 BKN220 13/07 A2998 RMK AO2 SLP150 T01280067
KSFO 220556Z 31005KT 10SM FEW120 BKN150 16/04 A2997 RMK AO2 SLP148 T01610044 10200 20156 53001
KSFO 220456Z 29012KT 10SM BKN150 16/06 A2995 RMK AO2 SLP142 T01610061
KSFO 220356Z 28011KT 10SM BKN150 16/06 A2997 RMK AO2 SLP147 T01610056
KSFO 220256Z 28009KT 10SM BKN150 17/07 A2997 RMK AO2 SLP147 T01670067 53002
KSFO 220156Z 29010KT 10SM SCT120 BKN150 BKN180 16/06 A2996 RMK AO2 SLP146 T01610061
KSFO 220056Z 29010KT 10SM BKN150 BKN180 18/06 A2996 RMK AO2 SLP145 T01780061
KSFO 212356Z 00000KT 10SM BKN150 BKN180 19/02 A2996 RMK AO2 SLP146 T01940022 10211 20139 56027
KSFO 212256Z 08003KT 10SM SCT150 BKN180 18/03 A2998 RMK AO2 SLP152 T01830033
KSFO 212156Z 00000KT 10SM FEW035 BKN200 19/02 A3000 RMK AO2 SLP159 T01940022
KSFO 212056Z 01003KT 10SM FEW035 BKN200 18/08 A3004 RMK AO2 SLP172 T01780078 58020
KSFO 211956Z 00000KT 10SM FEW035 SCT200 16/08 A3007 RMK AO2 SLP181 T01610078
KSFO 211856Z COR 05003KT 10SM FEW035 SCT200 15/08 A3009 RMK AO2 SLP189 T01500078
KSFO 211756Z 04004KT 10SM FEW035 SCT200 14/07 A3010 RMK AO2 SLP192 T01390067 10144 20094 50001
KSFO 211656Z 00000KT 10SM FEW200 13/08 A3010 RMK AO2 SLP194 T01330078
KSFO 211556Z 03003KT 10SM FEW200 13/07 A3011 RMK AO2 SLP194 T01330072
KSFO 211456Z 19003KT 10SM FEW200 10/06 A3010 RMK AO2 SLP191 T01000061 51007
KSFO 211356Z 18003KT 10SM BKN180 11/05 A3009 RMK AO2 SLP189 T01060050
KSFO 211256Z 00000KT 10SM BKN180 10/04 A3009 RMK AO2 SLP187 T01000044
KSFO 211156Z 22003KT 10SM BKN180 10/04 A3008 RMK AO2 SLP184 T01000044 10133 20100 58006
KSFO 211056Z 20003KT 10SM BKN180 11/07 A3008 RMK AO2 SLP186 T01110067
KSFO 210956Z 36005KT 10SM BKN180 13/08 A3009 RMK AO2 SLP189 T01330083
KSFO 210856Z 00000KT 10SM BKN180 12/07 A3009 RMK AO2 SLP190 T01220067 58006
KSFO 210756Z 00000KT 10SM BKN180 13/06 A3010 RMK AO2 SLP193 T01330056 401890072
KSFO 210656Z 29004KT 10SM BKN180 13/06 A3011 RMK AO2 SLP196 T01330056
KSFO 210556Z 28007KT 10SM SCT180 13/08 A3011 RMK AO2 SLP196 T01280078 10189 20128 51009
KSFO 210456Z COR 28009KT 10SM BKN180 13/08 A3011 RMK AO2 SLP195 T01330083
KSFO 210356Z 29007KT 10SM BKN180 13/07 A3009 RMK AO2 SLP189 T01330072
KSFO 210256Z 28008KT 10SM BKN180 14/05 A3009 RMK AO2 SLP187 T01440050 53004